Time;durP1;ratioP1;P1;durP2;ratioP2;P2;SDS_P1;SDS_P2;PMS_P1;PMS_P2;Temp;Humidity;BMP_temperature;BMP_pressure;BME280_temperature;BME280_humidity;BME280_pressure;Samples;Min_cycle;Max_cycle;Signal;HPM_P1;HPM_P2
2023/04/30 00:01:40;;;;;;;3.05;1.85;;;7.20;99.90;;;;;;5050995;28;20604;-58
2023/04/30 00:04:06;;;;;;;4.07;1.42;;;4.40;99.90;;;;;;5049462;28;21183;-58
2023/04/30 00:06:32;;;;;;;3.33;1.60;;;5.60;99.90;;;;;;5025329;28;20095;-59
2023/04/30 00:08:57;;;;;;;2.70;1.25;;;4.30;99.90;;;;;;5059676;28;20410;-58
2023/04/30 00:11:24;;;;;;;3.70;1.30;;;4.20;99.90;;;;;;5065352;28;20123;-58
2023/04/30 00:13:55;;;;;;;3.08;1.95;;;5.30;99.90;;;;;;5069354;28;20045;-59
2023/04/30 00:16:21;;;;;;;2.65;1.85;;;4.30;99.90;;;;;;5066083;28;20174;-58
2023/04/30 00:18:47;;;;;;;4.50;2.30;;;4.40;99.90;;;;;;5069685;28;20066;-59
2023/04/30 00:21:13;;;;;;;4.10;2.75;;;4.20;99.90;;;;;;5069354;28;20705;-59
2023/04/30 00:23:38;;;;;;;11.07;6.50;;;4.40;99.90;;;;;;5070054;28;20040;-59
2023/04/30 00:26:04;;;;;;;9.52;4.75;;;4.10;99.90;;;;;;5069917;28;20040;-58
2023/04/30 00:28:30;;;;;;;6.78;3.35;;;4.30;99.90;;;;;;5050809;28;20041;-58
2023/04/30 00:30:55;;;;;;;6.88;4.03;;;4.10;99.90;;;;;;5051927;28;20131;-58
2023/04/30 00:33:21;;;;;;;7.88;4.43;;;4.00;99.90;;;;;;5065486;28;20509;-58
2023/04/30 00:35:47;;;;;;;6.90;4.50;;;4.10;99.90;;;;;;5069340;28;20043;-58
2023/04/30 00:38:12;;;;;;;7.45;5.13;;;4.10;99.90;;;;;;5062188;28;20099;-58
2023/04/30 00:40:40;;;;;;;8.95;5.00;;;5.00;99.90;;;;;;5064337;28;20045;-58
2023/04/30 00:43:06;;;;;;;11.27;4.60;;;4.30;99.90;;;;;;5047114;28;20079;-58
2023/04/30 00:45:32;;;;;;;11.23;5.13;;;4.00;99.90;;;;;;5069095;28;20099;-58
2023/04/30 00:47:58;;;;;;;8.00;4.97;;;4.00;99.90;;;;;;5065211;28;20044;-58
2023/04/30 00:50:24;;;;;;;5.25;4.00;;;4.10;99.90;;;;;;5068719;28;20371;-58
2023/04/30 00:52:50;;;;;;;4.53;2.65;;;4.10;99.90;;;;;;5065624;28;20505;-58
2023/04/30 00:55:16;;;;;;;1.95;1.30;;;4.10;99.90;;;;;;5069355;28;20049;-58
2023/04/30 00:57:42;;;;;;;4.45;1.05;;;4.30;99.90;;;;;;5069183;28;20055;-58
2023/04/30 01:00:10;;;;;;;3.50;1.83;;;4.20;99.90;;;;;;5046443;28;20040;-59
2023/04/30 01:02:37;;;;;;;4.07;2.15;;;4.00;99.90;;;;;;5060736;28;20076;-58
2023/04/30 01:05:03;;;;;;;7.20;3.42;;;5.40;99.90;;;;;;5049183;28;20045;-58
2023/04/30 01:07:30;;;;;;;8.02;3.92;;;3.90;99.90;;;;;;5028569;28;20072;-58
2023/04/30 01:09:56;;;;;;;9.02;4.53;;;4.10;99.90;;;;;;5061509;28;20040;-58
2023/04/30 01:13:03;;;;;;;5.10;3.15;;;4.20;99.90;;;;;;5049061;28;20393;-58
2023/04/30 01:15:41;;;;;;;4.43;2.80;;;4.20;99.90;;;;;;5066248;28;21254;-58
2023/04/30 01:18:29;;;;;;;4.57;2.42;;;4.00;99.90;;;;;;5048254;28;20494;-58
2023/04/30 01:21:04;;;;;;;3.95;2.28;;;4.60;99.90;;;;;;5049025;28;20077;-58
2023/04/30 01:24:07;;;;;;;5.20;2.38;;;3.80;99.90;;;;;;5048682;28;20116;-57
2023/04/30 01:26:51;;;;;;;;;;;3.70;99.90;;;;;;5041359;28;20546;-58
2023/04/30 01:29:19;;;;;;;5.10;2.15;;;3.80;99.90;;;;;;5048703;28;20493;-58
2023/04/30 01:31:45;;;;;;;4.38;2.40;;;3.70;99.90;;;;;;5049327;28;20056;-58
2023/04/30 01:34:10;;;;;;;4.40;2.38;;;3.70;99.90;;;;;;5038520;28;20041;-58
2023/04/30 01:36:55;;;;;;;5.20;2.58;;;5.40;99.90;;;;;;5040391;28;20408;-58
2023/04/30 01:39:38;;;;;;;4.28;2.75;;;3.80;99.90;;;;;;5032926;28;20403;-58
2023/04/30 01:42:09;;;;;;;3.50;2.10;;;3.70;99.90;;;;;;5032900;28;20041;-58
2023/04/30 01:44:57;;;;;;;3.27;2.00;;;3.70;99.90;;;;;;5028954;28;20571;-58
2023/04/30 01:47:29;;;;;;;3.33;1.90;;;3.70;99.90;;;;;;5045312;28;20621;-58
2023/04/30 01:50:08;;;;;;;5.03;1.95;;;4.20;99.90;;;;;;5048170;28;20074;-57
2023/04/30 01:52:56;;;;;;;5.15;2.72;;;3.60;99.90;;;;;;5048568;28;20033;-58
2023/04/30 01:55:36;;;;;;;4.90;2.30;;;4.80;99.90;;;;;;5044007;28;20041;-58
2023/04/30 01:58:05;;;;;;;3.60;2.13;;;3.70;99.90;;;;;;5048217;28;20098;-58
2023/04/30 02:00:32;;;;;;;6.65;2.95;;;3.70;99.90;;;;;;5029974;28;20040;-58
2023/04/30 02:02:58;;;;;;;3.45;2.40;;;3.70;99.90;;;;;;5010080;28;20128;-57
2023/04/30 02:05:24;;;;;;;6.50;4.22;;;3.60;99.90;;;;;;5028291;28;20120;-57
2023/04/30 02:07:51;;;;;;;5.47;2.97;;;3.60;99.90;;;;;;5009644;28;20072;-58
2023/04/30 02:10:23;;;;;;;4.95;2.65;;;3.70;99.90;;;;;;5035786;28;20067;-57
2023/04/30 02:12:49;;;;;;;4.75;3.10;;;3.30;99.90;;;;;;5027957;28;20487;-58
2023/04/30 02:15:15;;;;;;;4.38;1.83;;;3.50;99.90;;;;;;5038340;28;20091;-57
2023/04/30 02:17:40;;;;;;;2.95;0.93;;;3.50;99.90;;;;;;5063938;28;20053;-58
2023/04/30 02:20:07;;;;;;;1.70;0.70;;;3.80;99.90;;;;;;5067608;28;20102;-57
2023/04/30 02:22:33;;;;;;;1.50;0.90;;;3.40;99.90;;;;;;5067264;28;20040;-58
2023/04/30 02:24:59;;;;;;;3.42;1.40;;;3.30;99.90;;;;;;5067003;28;20059;-58
2023/04/30 02:27:25;;;;;;;4.10;2.58;;;3.40;99.90;;;;;;5063512;28;20040;-58
2023/04/30 02:29:52;;;;;;;7.60;3.13;;;3.60;99.90;;;;;;5067582;28;20044;-57
2023/04/30 02:32:17;;;;;;;5.88;3.97;;;3.30;99.90;;;;;;5064184;28;20043;-58
2023/04/30 02:34:44;;;;;;;8.65;3.50;;;3.20;99.90;;;;;;5067262;28;20611;-58
2023/04/30 02:37:10;;;;;;;3.70;2.78;;;3.50;99.90;;;;;;5049919;28;20036;-58
2023/04/30 02:39:35;;;;;;;5.43;3.60;;;4.80;99.90;;;;;;5067377;28;20838;-58
2023/04/30 02:42:01;;;;;;;8.63;3.75;;;3.20;99.90;;;;;;5061608;28;20140;-58
2023/04/30 02:44:28;;;;;;;7.10;4.18;;;4.10;99.90;;;;;;5064896;28;20058;-58
2023/04/30 02:46:53;;;;;;;10.25;4.43;;;3.10;99.90;;;;;;5067556;28;20105;-58
2023/04/30 02:49:19;;;;;;;9.25;5.10;;;3.10;99.90;;;;;;5067328;28;20052;-58
2023/04/30 02:51:45;;;;;;;8.18;5.63;;;3.10;99.90;;;;;;5064730;28;20090;-58
2023/04/30 02:54:10;;;;;;;9.73;5.70;;;3.10;99.90;;;;;;5071085;28;20044;-58
2023/04/30 02:56:38;;;;;;;6.30;4.55;;;3.10;99.90;;;;;;5065793;28;20494;-58
2023/04/30 02:59:03;;;;;;;8.38;5.20;;;3.10;99.90;;;;;;5070531;28;20112;-58
2023/04/30 03:01:29;;;;;;;7.57;4.28;;;3.20;99.90;;;;;;5071125;28;20128;-58
2023/04/30 03:03:55;;;;;;;4.68;3.00;;;3.20;99.90;;;;;;5071179;28;20559;-57
2023/04/30 03:06:21;;;;;;;3.33;1.83;;;3.10;99.90;;;;;;5070979;28;20045;-58
2023/04/30 03:08:47;;;;;;;5.80;1.60;;;3.10;99.90;;;;;;5044035;28;20068;-58
2023/04/30 03:11:13;;;;;;;3.95;1.90;;;3.20;99.90;;;;;;5071392;28;20127;-58
2023/04/30 03:13:39;;;;;;;4.70;1.90;;;3.10;99.90;;;;;;5052742;28;20135;-58
2023/04/30 03:16:05;;;;;;;6.68;2.55;;;3.10;99.90;;;;;;5070819;28;20053;-58
2023/04/30 03:18:31;;;;;;;7.60;3.08;;;2.90;99.90;;;;;;5070243;28;20445;-58
2023/04/30 03:20:56;;;;;;;5.28;3.53;;;3.20;99.90;;;;;;5071161;28;20036;-58
2023/04/30 03:23:23;;;;;;;8.70;3.78;;;3.30;99.90;;;;;;5070829;28;20127;-58
2023/04/30 03:25:48;;;;;;;4.97;3.28;;;3.30;99.90;;;;;;5066519;28;20048;-58
2023/04/30 03:28:14;;;;;;;8.48;3.15;;;3.40;99.90;;;;;;5070063;28;20044;-58
2023/04/30 03:30:40;;;;;;;7.22;3.42;;;3.40;99.90;;;;;;5069913;28;20193;-57
2023/04/30 03:33:06;;;;;;;6.00;3.92;;;3.30;99.90;;;;;;5065786;28;20482;-58
2023/04/30 03:35:33;;;;;;;4.78;3.50;;;4.80;99.90;;;;;;5065778;28;20041;-57
2023/04/30 03:38:02;;;;;;;5.32;3.30;;;3.40;99.90;;;;;;5050128;28;20041;-57
2023/04/30 03:40:28;;;;;;;4.18;2.80;;;3.30;99.90;;;;;;5052904;28;20040;-57
2023/04/30 03:42:55;;;;;;;4.35;2.92;;;3.50;99.90;;;;;;5050700;28;20056;-57
2023/04/30 03:45:20;;;;;;;6.80;3.67;;;3.50;99.90;;;;;;5050134;28;20056;-56
2023/04/30 03:47:47;;;;;;;5.82;4.30;;;3.50;99.90;;;;;;5050508;28;20040;-58
2023/04/30 03:50:13;;;;;;;6.38;3.75;;;3.50;99.90;;;;;;5050260;28;20131;-57
2023/04/30 03:52:39;;;;;;;5.25;3.30;;;3.40;99.90;;;;;;5049746;28;20120;-57
2023/04/30 03:55:05;;;;;;;5.72;3.67;;;3.40;99.90;;;;;;5053809;28;20052;-57
2023/04/30 03:57:31;;;;;;;7.47;4.85;;;3.30;99.90;;;;;;5049794;28;20052;-57
2023/04/30 03:59:58;;;;;;;7.43;4.53;;;3.50;99.90;;;;;;5049965;28;20112;-57
2023/04/30 04:02:24;;;;;;;11.82;5.70;;;3.50;99.90;;;;;;5049964;28;20069;-57
2023/04/30 04:04:50;;;;;;;9.23;6.45;;;4.70;99.90;;;;;;5051793;28;20111;-57
2023/04/30 04:07:16;;;;;;;7.22;4.55;;;3.40;99.90;;;;;;5033885;28;20039;-58
2023/04/30 04:09:42;;;;;;;6.55;4.43;;;3.50;99.90;;;;;;5056763;28;20419;-57
2023/04/30 04:12:07;;;;;;;8.25;5.53;;;3.40;99.90;;;;;;5049939;28;20045;-57
2023/04/30 04:14:33;;;;;;;7.18;4.90;;;3.40;99.90;;;;;;5049847;28;20079;-57
2023/04/30 04:17:00;;;;;;;11.35;6.65;;;3.50;99.90;;;;;;5049971;28;20049;-58
2023/04/30 04:19:27;;;;;;;13.75;7.13;;;3.50;99.90;;;;;;5031374;28;20045;-58
2023/04/30 04:21:53;;;;;;;14.00;7.82;;;3.40;99.90;;;;;;5050040;28;20125;-57
2023/04/30 04:24:18;;;;;;;13.57;8.05;;;3.50;99.90;;;;;;5050051;28;20041;-57
2023/04/30 04:26:44;;;;;;;9.30;6.53;;;3.20;99.90;;;;;;5055638;28;20094;-57
2023/04/30 04:29:11;;;;;;;9.68;6.82;;;3.60;99.90;;;;;;5049934;28;20040;-57
2023/04/30 04:31:37;;;;;;;9.13;6.38;;;3.60;99.90;;;;;;5035509;28;20491;-58
2023/04/30 04:34:04;;;;;;;11.73;7.47;;;4.60;99.90;;;;;;5056916;28;20064;-57
2023/04/30 04:36:30;;;;;;;9.35;6.95;;;3.70;99.90;;;;;;5033511;28;20097;-58
2023/04/30 04:39:02;;;;;;;9.13;6.82;;;3.80;99.90;;;;;;5057746;28;20045;-58
2023/04/30 04:41:32;;;;;;;10.68;7.15;;;4.80;99.90;;;;;;5053959;28;20086;-58
2023/04/30 04:43:58;;;;;;;8.30;6.22;;;3.80;99.90;;;;;;5049592;28;20060;-57
2023/04/30 04:46:25;;;;;;;7.78;6.32;;;3.90;99.90;;;;;;5049660;28;20117;-57
2023/04/30 04:48:52;;;;;;;9.38;5.95;;;3.90;99.90;;;;;;5049298;28;20044;-58
2023/04/30 04:51:17;;;;;;;9.27;6.60;;;4.00;99.90;;;;;;5053330;28;20039;-57
2023/04/30 04:53:43;;;;;;;11.60;8.30;;;3.80;99.90;;;;;;5049403;28;20460;-58
2023/04/30 04:56:09;;;;;;;8.13;6.47;;;4.10;99.90;;;;;;5049206;28;20055;-58
2023/04/30 04:58:35;;;;;;;10.57;7.55;;;4.30;99.90;;;;;;5049095;28;20044;-58
2023/04/30 05:01:00;;;;;;;10.43;6.97;;;4.40;99.90;;;;;;5049209;28;20045;-58
2023/04/30 05:03:27;;;;;;;10.43;7.18;;;5.00;99.90;;;;;;5049113;28;20545;-58
2023/04/30 05:05:53;;;;;;;10.60;7.13;;;7.80;99.90;;;;;;5048826;28;20048;-58
2023/04/30 05:08:19;;;;;;;9.70;6.57;;;5.20;99.90;;;;;;5036132;28;20109;-58
2023/04/30 05:10:45;;;;;;;14.68;7.38;;;5.20;99.90;;;;;;5052864;28;20110;-58
2023/04/30 05:13:11;;;;;;;11.18;6.97;;;5.30;99.90;;;;;;5031030;28;20044;-58
2023/04/30 05:15:37;;;;;;;13.85;8.25;;;5.50;99.90;;;;;;5048364;28;20037;-58
2023/04/30 05:18:02;;;;;;;11.55;7.30;;;5.40;99.90;;;;;;5046672;28;20064;-58
2023/04/30 05:20:28;;;;;;;11.95;7.60;;;5.60;99.90;;;;;;5030303;28;20040;-57
2023/04/30 05:22:54;;;;;;;14.85;8.15;;;6.20;99.90;;;;;;5048868;28;20112;-58
2023/04/30 05:25:20;;;;;;;12.90;7.82;;;6.60;99.90;;;;;;5050801;28;20044;-58
2023/04/30 05:27:45;;;;;;;11.63;7.72;;;7.40;99.90;;;;;;5059437;28;20046;-58
2023/04/30 05:30:11;;;;;;;12.48;7.63;;;7.70;99.90;;;;;;5055827;28;20071;-58
2023/04/30 05:32:37;;;;;;;10.90;7.05;;;8.10;99.90;;;;;;5054873;28;20538;-58
2023/04/30 05:35:03;;;;;;;12.55;6.57;;;8.60;99.90;;;;;;5051718;28;20044;-58
2023/04/30 05:37:28;;;;;;;13.15;5.90;;;8.20;99.90;;;;;;5038626;28;20037;-58
2023/04/30 05:39:54;;;;;;;13.85;6.85;;;8.20;99.90;;;;;;5048214;28;20132;-58
2023/04/30 05:42:20;;;;;;;11.52;5.75;;;8.70;99.90;;;;;;5056766;28;20047;-57
2023/04/30 05:44:47;;;;;;;16.05;5.07;;;9.00;99.90;;;;;;5052666;28;20045;-57
2023/04/30 05:47:12;;;;;;;8.82;4.35;;;9.30;99.90;;;;;;5054466;28;20533;-57
2023/04/30 05:49:38;;;;;;;9.95;4.18;;;9.50;99.90;;;;;;5047700;28;20064;-58
2023/04/30 05:52:04;;;;;;;9.10;3.38;;;10.00;99.90;;;;;;5052069;28;20774;-58
2023/04/30 05:54:30;;;;;;;7.50;2.60;;;10.40;99.90;;;;;;5048405;28;20045;-58
2023/04/30 05:56:56;;;;;;;8.70;2.80;;;10.60;99.90;;;;;;5049693;28;20041;-58
2023/04/30 05:59:21;;;;;;;10.90;2.75;;;11.30;99.90;;;;;;5047873;28;20082;-58
2023/04/30 06:01:47;;;;;;;9.18;2.33;;;11.10;99.90;;;;;;5048160;28;20121;-58
2023/04/30 06:04:13;;;;;;;9.35;2.47;;;11.90;99.90;;;;;;5047309;28;20491;-58
2023/04/30 06:06:38;;;;;;;8.38;2.63;;;11.90;99.90;;;;;;5049023;28;20047;-58
2023/04/30 06:09:05;;;;;;;8.23;2.00;;;11.50;99.90;;;;;;5031291;28;20102;-58
2023/04/30 06:11:31;;;;;;;6.22;2.20;;;12.10;99.90;;;;;;5067052;28;20048;-58
2023/04/30 06:13:57;;;;;;;6.85;2.78;;;11.80;99.90;;;;;;5067464;28;20045;-58
2023/04/30 06:16:23;;;;;;;8.23;2.13;;;11.40;99.80;;;;;;5067684;28;20051;-58
2023/04/30 06:18:48;;;;;;;6.95;2.05;;;11.00;99.60;;;;;;5063407;28;20057;-58
2023/04/30 06:21:14;;;;;;;6.65;1.95;;;10.70;99.90;;;;;;5067806;28;20055;-59
2023/04/30 06:23:40;;;;;;;9.10;2.38;;;10.70;99.90;;;;;;5068108;28;20029;-58
2023/04/30 06:26:06;;;;;;;7.90;1.80;;;10.30;99.90;;;;;;5069003;28;20091;-58
2023/04/30 06:28:31;;;;;;;7.53;2.15;;;10.30;99.90;;;;;;5067879;28;20072;-58
2023/04/30 06:30:57;;;;;;;7.97;2.53;;;10.10;99.90;;;;;;5072183;28;20037;-58
2023/04/30 06:33:23;;;;;;;8.73;1.85;;;10.70;99.90;;;;;;5068104;28;20037;-58
2023/04/30 06:35:54;;;;;;;8.02;1.65;;;10.00;99.90;;;;;;5067337;28;20040;-58
2023/04/30 06:38:20;;;;;;;4.90;1.42;;;10.00;99.90;;;;;;5068390;28;20040;-59
2023/04/30 06:40:46;;;;;;;10.00;1.75;;;10.30;99.90;;;;;;5049745;28;20112;-58
2023/04/30 06:43:11;;;;;;;7.38;1.90;;;10.50;99.90;;;;;;5067811;28;20115;-58
2023/04/30 06:45:38;;;;;;;11.30;2.30;;;11.10;99.90;;;;;;5071686;28;20052;-58
2023/04/30 06:48:04;;;;;;;7.47;2.08;;;11.70;99.10;;;;;;5071622;28;20115;-58
2023/04/30 06:50:30;;;;;;;10.57;1.77;;;12.50;98.40;;;;;;5070481;28;20040;-58
2023/04/30 06:52:56;;;;;;;6.78;1.20;;;13.60;96.30;;;;;;5068606;28;20458;-58
2023/04/30 06:55:21;;;;;;;9.57;1.33;;;14.20;94.20;;;;;;5052663;28;20094;-58
2023/04/30 06:57:47;;;;;;;8.82;2.10;;;14.80;93.00;;;;;;5070138;28;20044;-58
2023/04/30 07:00:16;;;;;;;8.02;1.52;;;15.40;92.60;;;;;;5059704;28;20037;-58
2023/04/30 07:02:42;;;;;;;4.90;0.90;;;15.90;95.70;;;;;;5061968;28;20123;-58
2023/04/30 07:05:10;;;;;;;6.53;1.55;;;16.20;94.00;;;;;;5070099;28;20131;-58
2023/04/30 07:07:35;;;;;;;8.05;0.98;;;16.10;92.50;;;;;;5040133;28;20128;-58
2023/04/30 07:10:01;;;;;;;7.65;1.08;;;15.40;91.80;;;;;;5045374;28;20139;-58
2023/04/30 07:12:27;;;;;;;7.40;0.95;;;14.80;92.10;;;;;;5064631;28;20040;-58
2023/04/30 07:14:52;;;;;;;5.75;0.85;;;14.50;92.80;;;;;;5071226;28;20372;-58
2023/04/30 07:17:18;;;;;;;7.85;1.55;;;14.30;93.00;;;;;;5065392;28;20507;-59
2023/04/30 07:19:44;;;;;;;5.18;1.08;;;14.40;92.40;;;;;;5069201;28;20073;-58
2023/04/30 07:22:10;;;;;;;7.47;1.88;;;14.50;92.10;;;;;;5064692;28;20032;-58
2023/04/30 07:24:35;;;;;;;6.35;1.20;;;14.70;89.70;;;;;;5039783;28;20047;-58
2023/04/30 07:27:02;;;;;;;7.80;1.23;;;14.70;89.10;;;;;;5056980;28;20053;-58
2023/04/30 07:29:28;;;;;;;6.35;0.77;;;14.70;89.60;;;;;;5056133;28;20091;-58
2023/04/30 07:31:55;;;;;;;6.88;1.40;;;14.60;87.60;;;;;;5070046;28;20048;-59
2023/04/30 07:34:21;;;;;;;7.40;1.27;;;14.50;88.30;;;;;;5048705;28;20084;-59
2023/04/30 07:36:50;;;;;;;6.45;1.33;;;14.70;87.60;;;;;;5041871;28;20087;-59
2023/04/30 07:39:16;;;;;;;11.02;1.80;;;14.30;87.20;;;;;;5065963;28;20119;-59
2023/04/30 07:41:42;;;;;;;6.80;1.50;;;14.00;86.40;;;;;;5064549;28;20077;-58
2023/04/30 07:44:08;;;;;;;6.93;1.45;;;13.80;86.60;;;;;;5053731;28;20554;-58
2023/04/30 07:46:35;;;;;;;10.60;1.02;;;13.50;87.30;;;;;;5049686;28;20132;-58
2023/04/30 07:49:01;;;;;;;9.07;2.35;;;13.40;89.50;;;;;;5049948;28;20052;-59
2023/04/30 07:51:27;;;;;;;8.38;1.20;;;13.20;88.50;;;;;;5053890;28;20594;-59
2023/04/30 07:53:53;;;;;;;5.20;1.65;;;13.00;88.80;;;;;;5050180;28;20053;-59
2023/04/30 07:56:20;;;;;;;6.38;1.17;;;13.00;89.60;;;;;;5049770;28;20040;-59
2023/04/30 07:58:46;;;;;;;8.13;2.10;;;13.10;89.30;;;;;;5058024;28;20045;-59
2023/04/30 08:01:12;;;;;;;7.97;1.20;;;12.70;89.10;;;;;;5069230;28;20033;-59
2023/04/30 08:03:37;;;;;;;7.65;1.27;;;12.70;88.50;;;;;;5069789;28;20101;-58
2023/04/30 08:06:05;;;;;;;11.55;1.58;;;12.60;88.70;;;;;;5069645;28;20078;-59
2023/04/30 08:08:30;;;;;;;6.25;1.20;;;12.50;88.50;;;;;;5045949;28;20474;-58
2023/04/30 08:10:56;;;;;;;9.93;1.63;;;12.40;88.90;;;;;;5065329;28;20071;-59
2023/04/30 08:13:22;;;;;;;7.47;1.55;;;12.40;90.00;;;;;;5048735;28;20441;-58
2023/04/30 08:15:47;;;;;;;4.72;1.48;;;12.40;90.00;;;;;;5049412;28;20052;-58
2023/04/30 08:18:13;;;;;;;6.55;1.70;;;12.80;91.00;;;;;;5049643;28;20057;-58
2023/04/30 08:20:39;;;;;;;6.90;1.30;;;12.70;90.80;;;;;;5051406;28;20076;-58
2023/04/30 08:23:04;;;;;;;6.32;1.40;;;12.70;90.00;;;;;;5060831;28;20059;-58
2023/04/30 08:25:31;;;;;;;7.85;1.55;;;12.80;90.30;;;;;;5050946;28;20049;-58
2023/04/30 08:27:56;;;;;;;9.05;1.27;;;12.90;90.40;;;;;;5052320;28;20037;-59
2023/04/30 08:30:22;;;;;;;7.68;1.20;;;13.00;90.30;;;;;;5053106;28;20430;-59
2023/04/30 08:32:48;;;;;;;8.27;1.40;;;13.10;90.30;;;;;;5038947;28;20073;-50
2023/04/30 08:35:18;;;;;;;10.85;1.58;;;13.20;90.30;;;;;;5049102;28;20855;-55
2023/04/30 08:37:44;;;;;;;10.32;2.28;;;13.40;90.60;;;;;;5050748;28;20461;-57
2023/04/30 08:40:11;;;;;;;7.25;1.48;;;13.50;88.80;;;;;;5050704;28;20363;-56
2023/04/30 08:42:42;;;;;;;5.05;0.90;;;13.80;90.00;;;;;;5024308;28;22049;-61
2023/04/30 08:45:11;;;;;;;6.78;1.50;;;14.40;89.60;;;;;;5049697;28;20045;-57
2023/04/30 08:47:37;;;;;;;4.43;1.15;;;14.50;90.00;;;;;;5044277;28;20376;-63
2023/04/30 08:50:04;;;;;;;7.72;2.33;;;14.90;89.40;;;;;;5032748;28;20078;-58
2023/04/30 08:52:34;;;;;;;8.50;1.92;;;15.10;87.10;;;;;;5047004;28;20060;-59
2023/04/30 08:55:00;;;;;;;5.53;1.27;;;15.40;85.10;;;;;;5044245;28;20055;-57
2023/04/30 08:57:26;;;;;;;6.18;0.90;;;15.70;84.70;;;;;;5051603;28;20032;-58
2023/04/30 08:59:53;;;;;;;5.88;1.70;;;15.80;84.20;;;;;;5048125;28;20032;-58
2023/04/30 09:02:19;;;;;;;4.32;1.00;;;15.80;83.10;;;;;;5047511;28;20032;-59
2023/04/30 09:04:45;;;;;;;7.03;1.13;;;16.10;82.40;;;;;;5048427;28;20470;-55
2023/04/30 09:07:13;;;;;;;5.60;0.80;;;16.30;82.10;;;;;;5042219;28;20048;-57
2023/04/30 09:09:39;;;;;;;5.97;1.67;;;16.50;80.30;;;;;;5049874;28;20071;-57
2023/04/30 09:12:25;;;;;;;5.72;0.88;;;16.60;79.30;;;;;;5050513;28;20069;-59
2023/04/30 09:15:00;;;;;;;4.63;0.80;;;16.90;75.80;;;;;;5040049;28;20040;-58
2023/04/30 09:17:30;;;;;;;6.93;1.23;;;17.10;78.60;;;;;;5027134;28;20064;-62
2023/04/30 09:20:12;;;;;;;5.13;0.90;;;17.40;78.40;;;;;;5023040;28;20692;-58
2023/04/30 09:22:41;;;;;;;3.95;0.90;;;17.60;77.10;;;;;;5028590;28;20091;-59
2023/04/30 09:25:07;;;;;;;4.75;0.77;;;17.80;77.50;;;;;;5027414;28;20120;-60
2023/04/30 09:27:33;;;;;;;5.18;1.15;;;17.90;76.80;;;;;;5028993;28;20041;-61
2023/04/30 09:30:00;;;;;;;7.30;1.27;;;17.90;75.70;;;;;;5028019;28;20036;-61
2023/04/30 09:32:25;;;;;;;4.35;0.70;;;18.10;73.50;;;;;;5029402;28;20704;-58
2023/04/30 09:34:51;;;;;;;5.75;0.70;;;18.20;74.50;;;;;;5028143;28;20037;-58
2023/04/30 09:37:17;;;;;;;2.45;0.43;;;16.80;79.00;;;;;;5030756;28;20071;-58
2023/04/30 09:39:57;;;;;;;4.38;1.27;;;18.50;79.90;;;;;;5029195;28;20045;-58
2023/04/30 09:42:23;;;;;;;5.82;0.80;;;18.70;78.50;;;;;;5022889;28;20041;-58
2023/04/30 09:44:52;;;;;;;6.30;1.45;;;18.50;78.30;;;;;;5067379;28;20174;-58
2023/04/30 09:47:19;;;;;;;5.20;1.02;;;18.50;78.30;;;;;;5066921;28;20037;-57
2023/04/30 09:49:50;;;;;;;4.43;0.80;;;18.80;79.00;;;;;;5066962;28;20039;-57
2023/04/30 09:52:17;;;;;;;4.90;1.00;;;18.60;78.50;;;;;;5064488;28;20453;-56
2023/04/30 09:54:44;;;;;;;4.93;1.00;;;18.60;79.00;;;;;;5066801;28;20475;-58
2023/04/30 09:57:12;;;;;;;5.18;0.90;;;18.60;77.90;;;;;;5069461;28;20041;-57
2023/04/30 09:59:45;;;;;;;5.68;1.13;;;18.30;72.10;;;;;;5052401;28;20060;-54
2023/04/30 10:02:15;;;;;;;3.65;0.70;;;18.10;71.70;;;;;;5048810;28;20422;-57
2023/04/30 10:04:52;;;;;;;10.00;1.38;;;18.00;72.30;;;;;;5048661;28;20467;-56
2023/04/30 10:07:20;;;;;;;4.35;1.10;;;17.80;72.20;;;;;;5048847;28;20049;-56
2023/04/30 10:10:08;;;;;;;3.83;1.55;;;17.80;71.80;;;;;;5049891;28;20459;-56
2023/04/30 10:12:53;;;;;;;3.92;1.10;;;17.80;71.40;;;;;;5048760;28;20033;-56
2023/04/30 10:15:27;;;;;;;7.25;1.30;;;17.60;68.00;;;;;;5048671;28;20088;-56
2023/04/30 10:18:07;;;;;;;4.82;1.60;;;17.40;72.00;;;;;;5048395;28;20119;-55
2023/04/30 10:20:36;;;;;;;5.50;1.25;;;17.20;73.50;;;;;;5047113;28;20488;-54
2023/04/30 10:23:02;;;;;;;11.48;1.42;;;17.30;73.90;;;;;;5047579;28;20057;-57
2023/04/30 10:25:28;;;;;;;8.90;1.13;;;17.30;73.20;;;;;;5048754;28;20094;-55
2023/04/30 10:27:54;;;;;;;4.75;1.42;;;17.30;72.80;;;;;;5048776;28;20103;-54
2023/04/30 10:30:21;;;;;;;8.65;2.30;;;17.20;73.40;;;;;;5048392;28;20049;-59
2023/04/30 10:33:05;;;;;;;5.07;1.70;;;17.00;72.00;;;;;;5048552;28;20099;-60
2023/04/30 10:35:48;;;;;;;4.90;1.23;;;16.80;69.80;;;;;;5047428;28;20134;-64
2023/04/30 10:38:26;;;;;;;4.60;0.80;;;16.70;71.80;;;;;;5048770;28;20045;-60
2023/04/30 10:41:00;;;;;;;5.57;1.10;;;16.60;72.10;;;;;;5047129;28;20045;-61
2023/04/30 10:43:28;;;;;;;5.82;1.38;;;16.70;74.10;;;;;;5047195;28;20099;-60
2023/04/30 10:45:57;;;;;;;6.93;2.10;;;16.70;73.40;;;;;;5049456;28;20056;-60
2023/04/30 10:48:24;;;;;;;11.27;2.28;;;16.70;73.50;;;;;;5048581;28;20049;-61
2023/04/30 10:50:54;;;;;;;7.25;1.42;;;16.80;73.20;;;;;;5046329;28;20037;-61
2023/04/30 10:53:21;;;;;;;5.30;1.40;;;16.70;71.40;;;;;;5063463;28;20041;-60
2023/04/30 10:55:59;;;;;;;6.53;1.73;;;16.60;73.10;;;;;;5064952;28;20052;-60
2023/04/30 10:58:25;;;;;;;7.35;1.42;;;16.50;85.90;;;;;;5048813;28;20047;-61
2023/04/30 11:01:03;;;;;;;3.63;1.23;;;16.30;73.80;;;;;;5064872;28;20045;-60
2023/04/30 11:03:29;;;;;;;6.63;1.58;;;16.10;72.10;;;;;;5064947;28;20048;-60
2023/04/30 11:05:55;;;;;;;5.93;1.30;;;15.90;73.40;;;;;;5066465;28;20505;-60
2023/04/30 11:08:39;;;;;;;6.32;1.60;;;15.80;74.10;;;;;;5064879;28;20052;-60
2023/04/30 11:11:08;;;;;;;8.30;1.50;;;15.60;75.10;;;;;;5049685;28;20055;-63
2023/04/30 11:13:43;;;;;;;4.35;1.50;;;15.70;76.00;;;;;;5051306;28;20045;-63
2023/04/30 11:16:11;;;;;;;4.32;1.38;;;15.40;75.80;;;;;;5036417;28;20044;-64
2023/04/30 11:18:44;;;;;;;5.78;1.30;;;15.20;75.10;;;;;;5067121;28;20206;-63
2023/04/30 11:21:11;;;;;;;2.97;1.00;;;15.10;75.30;;;;;;5057817;28;20040;-62
2023/04/30 11:23:48;;;;;;;4.40;1.25;;;15.00;75.40;;;;;;5050747;28;20383;-63
2023/04/30 11:26:14;;;;;;;4.82;1.33;;;14.90;75.20;;;;;;5032897;28;20122;-63
2023/04/30 11:28:53;;;;;;;4.55;1.10;;;14.80;75.20;;;;;;5051408;28;20242;-63
2023/04/30 11:31:19;;;;;;;5.03;1.52;;;14.80;76.60;;;;;;5033462;28;20103;-64
2023/04/30 11:33:45;;;;;;;4.55;1.58;;;14.70;76.90;;;;;;5051245;28;20037;-64
2023/04/30 11:36:13;;;;;;;5.18;1.27;;;14.80;78.70;;;;;;5049740;28;20426;-64
2023/04/30 11:38:40;;;;;;;4.00;1.50;;;14.80;78.10;;;;;;5049656;28;20163;-64
2023/04/30 11:41:06;;;;;;;2.40;1.08;;;14.80;78.30;;;;;;5050523;28;20051;-63
2023/04/30 11:43:33;;;;;;;3.47;1.00;;;14.70;78.60;;;;;;5056288;28;20029;-63
2023/04/30 11:46:00;;;;;;;3.83;0.88;;;14.80;78.30;;;;;;5064375;28;20421;-64
2023/04/30 11:48:52;;;;;;;2.33;0.90;;;14.80;78.10;;;;;;5054391;28;20607;-63
2023/04/30 11:51:20;;;;;;;2.47;0.60;;;14.70;77.10;;;;;;5059728;28;20048;-63
2023/04/30 11:53:48;;;;;;;2.08;0.45;;;14.70;78.20;;;;;;5064509;28;20190;-64
2023/04/30 11:56:20;;;;;;;2.65;0.60;;;14.70;78.00;;;;;;5066210;28;20078;-63
2023/04/30 11:58:47;;;;;;;3.15;0.82;;;14.60;77.00;;;;;;5054555;28;20749;-64
2023/04/30 12:01:14;;;;;;;2.60;0.50;;;14.60;77.20;;;;;;5059085;28;20063;-63
2023/04/30 12:03:44;;;;;;;3.28;1.45;;;14.60;78.40;;;;;;5052632;28;20043;-63
2023/04/30 12:06:11;;;;;;;3.97;1.00;;;14.60;78.40;;;;;;5051095;28;20573;-63
2023/04/30 12:08:37;;;;;;;2.08;0.68;;;14.60;78.00;;;;;;5051194;28;20506;-63
2023/04/30 12:11:06;;;;;;;5.03;0.90;;;14.60;77.80;;;;;;5051567;28;20048;-63
2023/04/30 12:13:32;;;;;;;2.15;0.73;;;14.60;78.20;;;;;;5064438;28;20071;-64
2023/04/30 12:15:59;;;;;;;1.83;0.73;;;14.60;78.50;;;;;;5067831;28;20040;-63
2023/04/30 12:18:25;;;;;;;3.10;0.90;;;14.70;77.90;;;;;;5068925;28;20056;-63
2023/04/30 12:20:51;;;;;;;3.53;1.20;;;14.50;78.50;;;;;;5067951;28;20055;-63
2023/04/30 12:23:18;;;;;;;2.70;0.90;;;14.50;77.80;;;;;;5068148;28;20037;-63
2023/04/30 12:25:44;;;;;;;4.15;1.25;;;14.50;78.70;;;;;;5067900;28;20119;-63
2023/04/30 12:28:10;;;;;;;4.85;1.27;;;14.50;78.90;;;;;;5068498;28;20127;-63
2023/04/30 12:30:36;;;;;;;4.15;1.17;;;14.40;78.20;;;;;;5068617;28;20051;-63
2023/04/30 12:33:02;;;;;;;3.25;1.10;;;14.40;78.80;;;;;;5067110;28;20049;-62
2023/04/30 12:35:30;;;;;;;4.60;1.50;;;14.50;78.30;;;;;;5068632;28;20086;-63
2023/04/30 12:38:05;;;;;;;3.20;1.08;;;14.40;77.10;;;;;;5053291;28;20090;-64
2023/04/30 12:40:31;;;;;;;3.38;1.45;;;14.50;76.90;;;;;;5050292;28;20479;-63
2023/04/30 12:43:04;;;;;;;5.38;1.73;;;14.50;77.30;;;;;;5047391;28;20044;-63
2023/04/30 12:45:47;;;;;;;4.80;1.85;;;14.50;77.90;;;;;;5048371;28;20041;-63
2023/04/30 12:48:14;;;;;;;4.40;1.48;;;14.60;78.60;;;;;;5049813;28;20538;-64
2023/04/30 12:50:40;;;;;;;7.93;2.17;;;14.60;77.60;;;;;;5048125;28;20041;-63
2023/04/30 12:53:09;;;;;;;3.22;1.42;;;14.60;77.20;;;;;;5051651;28;20041;-63
2023/04/30 12:55:36;;;;;;;8.02;1.92;;;14.60;77.30;;;;;;5067870;28;20048;-64